sensor_id;sensor_type;location;lat;lon;timestamp;pressure;altitude;pressure_sealevel;temperature;humidity
4576;BME280;2300;51.874;8.430;2022-12-18T00:00:05;102145.13;;;-11.07;82.20
4576;BME280;2300;51.874;8.430;2022-12-18T00:02:32;102142.41;;;-11.05;82.07
4576;BME280;2300;51.874;8.430;2022-12-18T00:04:59;102144.72;;;-10.96;82.60
4576;BME280;2300;51.874;8.430;2022-12-18T00:07:25;102138.63;;;-10.98;83.02
4576;BME280;2300;51.874;8.430;2022-12-18T00:09:52;102144.66;;;-10.94;83.11
4576;BME280;2300;51.874;8.430;2022-12-18T00:12:18;102139.78;;;-10.83;84.01
4576;BME280;2300;51.874;8.430;2022-12-18T00:14:46;102153.75;;;-10.78;84.92
4576;BME280;2300;51.874;8.430;2022-12-18T00:17:12;102156.03;;;-10.69;84.81
4576;BME280;2300;51.874;8.430;2022-12-18T00:19:39;102158.91;;;-10.75;84.73
4576;BME280;2300;51.874;8.430;2022-12-18T00:22:05;102150.09;;;-10.76;84.30
4576;BME280;2300;51.874;8.430;2022-12-18T00:24:32;102161.75;;;-10.80;83.78
4576;BME280;2300;51.874;8.430;2022-12-18T00:26:58;102153.84;;;-10.81;83.15
4576;BME280;2300;51.874;8.430;2022-12-18T00:29:25;102154.03;;;-10.86;82.96
4576;BME280;2300;51.874;8.430;2022-12-18T00:31:53;102157.69;;;-10.88;83.28
4576;BME280;2300;51.874;8.430;2022-12-18T00:34:19;102154.66;;;-10.79;83.75
4576;BME280;2300;51.874;8.430;2022-12-18T00:36:47;102159.97;;;-10.79;83.99
4576;BME280;2300;51.874;8.430;2022-12-18T00:39:13;102169.44;;;-10.72;84.17
4576;BME280;2300;51.874;8.430;2022-12-18T00:41:40;102172.78;;;-10.67;84.46
4576;BME280;2300;51.874;8.430;2022-12-18T00:44:24;102158.28;;;-10.82;84.13
4576;BME280;2300;51.874;8.430;2022-12-18T00:46:52;102172.88;;;-10.70;84.19
4576;BME280;2300;51.874;8.430;2022-12-18T00:49:20;102158.69;;;-10.69;84.52
4576;BME280;2300;51.874;8.430;2022-12-18T00:51:46;102162.69;;;-10.59;84.73
4576;BME280;2300;51.874;8.430;2022-12-18T00:54:13;102164.88;;;-10.47;85.16
4576;BME280;2300;51.874;8.430;2022-12-18T00:56:40;102165.34;;;-10.37;85.64
4576;BME280;2300;51.874;8.430;2022-12-18T00:59:06;102167.56;;;-10.27;85.43
4576;BME280;2300;51.874;8.430;2022-12-18T01:01:33;102168.28;;;-10.23;85.48
4576;BME280;2300;51.874;8.430;2022-12-18T01:04:02;102151.72;;;-10.30;85.78
4576;BME280;2300;51.874;8.430;2022-12-18T01:06:29;102150.50;;;-10.21;86.10
4576;BME280;2300;51.874;8.430;2022-12-18T01:08:56;102155.72;;;-10.20;85.77
4576;BME280;2300;51.874;8.430;2022-12-18T01:11:23;102152.03;;;-10.16;85.94
4576;BME280;2300;51.874;8.430;2022-12-18T01:13:51;102149.38;;;-10.16;85.60
4576;BME280;2300;51.874;8.430;2022-12-18T01:16:18;102150.25;;;-9.95;86.72
4576;BME280;2300;51.874;8.430;2022-12-18T01:18:45;102142.59;;;-9.82;87.26
4576;BME280;2300;51.874;8.430;2022-12-18T01:21:15;102141.34;;;-9.75;87.06
4576;BME280;2300;51.874;8.430;2022-12-18T01:23:42;102148.53;;;-9.77;86.75
4576;BME280;2300;51.874;8.430;2022-12-18T01:26:11;102157.97;;;-9.70;86.76
4576;BME280;2300;51.874;8.430;2022-12-18T01:28:38;102146.41;;;-9.69;87.38
4576;BME280;2300;51.874;8.430;2022-12-18T01:31:13;102146.31;;;-9.68;87.05
4576;BME280;2300;51.874;8.430;2022-12-18T01:33:40;102151.06;;;-9.74;87.02
4576;BME280;2300;51.874;8.430;2022-12-18T01:36:07;102153.66;;;-9.73;86.45
4576;BME280;2300;51.874;8.430;2022-12-18T01:38:35;102156.19;;;-9.70;86.36
4576;BME280;2300;51.874;8.430;2022-12-18T01:41:02;102150.78;;;-9.68;86.43
4576;BME280;2300;51.874;8.430;2022-12-18T01:43:45;102144.03;;;-9.75;86.44
4576;BME280;2300;51.874;8.430;2022-12-18T01:46:13;102123.06;;;-10.01;85.93
4576;BME280;2300;51.874;8.430;2022-12-18T01:48:40;102156.03;;;-9.85;85.99
4576;BME280;2300;51.874;8.430;2022-12-18T01:51:09;102149.78;;;-9.84;85.87
4576;BME280;2300;51.874;8.430;2022-12-18T01:53:39;102151.78;;;-9.89;85.30
4576;BME280;2300;51.874;8.430;2022-12-18T01:56:07;102139.78;;;-9.99;85.36
4576;BME280;2300;51.874;8.430;2022-12-18T01:58:39;102134.41;;;-9.98;85.71
4576;BME280;2300;51.874;8.430;2022-12-18T02:01:07;102147.59;;;-9.95;85.88
4576;BME280;2300;51.874;8.430;2022-12-18T02:03:34;102100.72;;;-10.18;86.05
4576;BME280;2300;51.874;8.430;2022-12-18T02:06:06;102133.47;;;-9.97;86.02
4576;BME280;2300;51.874;8.430;2022-12-18T02:08:40;102100.25;;;-10.27;86.23
4576;BME280;2300;51.874;8.430;2022-12-18T02:11:12;102132.22;;;-9.88;86.39
4576;BME280;2300;51.874;8.430;2022-12-18T02:13:46;102159.97;;;-9.75;86.92
4576;BME280;2300;51.874;8.430;2022-12-18T02:16:24;102153.97;;;-9.60;86.90
4576;BME280;2300;51.874;8.430;2022-12-18T02:18:56;102158.38;;;-9.59;86.95
4576;BME280;2300;51.874;8.430;2022-12-18T02:21:30;102155.56;;;-9.56;86.57
4576;BME280;2300;51.874;8.430;2022-12-18T02:24:13;102151.97;;;-9.55;87.19
4576;BME280;2300;51.874;8.430;2022-12-18T02:26:47;102155.41;;;-9.53;87.19
4576;BME280;2300;51.874;8.430;2022-12-18T02:29:16;102157.03;;;-9.49;86.85
4576;BME280;2300;51.874;8.430;2022-12-18T02:31:49;102144.75;;;-9.53;86.46
4576;BME280;2300;51.874;8.430;2022-12-18T02:34:17;102132.97;;;-9.66;85.83
4576;BME280;2300;51.874;8.430;2022-12-18T02:36:46;102123.97;;;-9.82;85.79
4576;BME280;2300;51.874;8.430;2022-12-18T02:39:15;102141.97;;;-9.89;85.68
4576;BME280;2300;51.874;8.430;2022-12-18T02:41:44;102136.59;;;-9.87;85.82
4576;BME280;2300;51.874;8.430;2022-12-18T02:44:12;102133.44;;;-9.95;85.50
4576;BME280;2300;51.874;8.430;2022-12-18T02:46:41;102140.72;;;-9.80;87.01
4576;BME280;2300;51.874;8.430;2022-12-18T02:49:23;102148.09;;;-9.87;86.92
4576;BME280;2300;51.874;8.430;2022-12-18T02:51:53;102130.38;;;-10.06;85.74
4576;BME280;2300;51.874;8.430;2022-12-18T02:54:36;102140.75;;;-10.00;85.13
4576;BME280;2300;51.874;8.430;2022-12-18T02:57:13;102135.53;;;-10.03;85.46
4576;BME280;2300;51.874;8.430;2022-12-18T02:59:47;102131.63;;;-9.95;86.30
4576;BME280;2300;51.874;8.430;2022-12-18T03:02:23;102133.63;;;-9.80;87.08
4576;BME280;2300;51.874;8.430;2022-12-18T03:04:57;102136.69;;;-9.70;87.30
4576;BME280;2300;51.874;8.430;2022-12-18T03:07:34;102141.00;;;-9.68;86.72
4576;BME280;2300;51.874;8.430;2022-12-18T03:10:05;102142.78;;;-9.68;86.76
4576;BME280;2300;51.874;8.430;2022-12-18T03:12:36;102117.72;;;-9.81;86.75
4576;BME280;2300;51.874;8.430;2022-12-18T03:15:08;102124.84;;;-9.82;86.79
4576;BME280;2300;51.874;8.430;2022-12-18T03:17:39;102130.84;;;-9.78;87.10
4576;BME280;2300;51.874;8.430;2022-12-18T03:20:11;102127.13;;;-9.74;87.32
4576;BME280;2300;51.874;8.430;2022-12-18T03:22:40;102130.38;;;-9.68;87.64
4576;BME280;2300;51.874;8.430;2022-12-18T03:25:11;102134.44;;;-9.59;87.90
4576;BME280;2300;51.874;8.430;2022-12-18T03:27:42;102134.28;;;-9.56;88.21
4576;BME280;2300;51.874;8.430;2022-12-18T03:30:12;102142.41;;;-9.59;87.83
4576;BME280;2300;51.874;8.430;2022-12-18T03:32:43;102144.31;;;-9.62;87.51
4576;BME280;2300;51.874;8.430;2022-12-18T03:35:15;102146.00;;;-9.60;87.18
4576;BME280;2300;51.874;8.430;2022-12-18T03:37:44;102148.31;;;-9.73;86.58
4576;BME280;2300;51.874;8.430;2022-12-18T03:40:11;102151.38;;;-9.80;87.03
4576;BME280;2300;51.874;8.430;2022-12-18T03:42:45;102152.63;;;-9.89;86.95
4576;BME280;2300;51.874;8.430;2022-12-18T03:45:19;102143.25;;;-9.97;86.56
4576;BME280;2300;51.874;8.430;2022-12-18T03:47:55;102110.84;;;-10.26;86.14
4576;BME280;2300;51.874;8.430;2022-12-18T03:50:31;102152.56;;;-10.07;85.43
4576;BME280;2300;51.874;8.430;2022-12-18T03:53:07;102141.66;;;-10.22;85.44
4576;BME280;2300;51.874;8.430;2022-12-18T03:55:35;102146.63;;;-10.14;85.31
4576;BME280;2300;51.874;8.430;2022-12-18T03:58:06;102147.63;;;-10.17;85.54
4576;BME280;2300;51.874;8.430;2022-12-18T04:00:34;102119.38;;;-10.39;84.96
4576;BME280;2300;51.874;8.430;2022-12-18T04:03:02;102138.06;;;-10.21;86.14
4576;BME280;2300;51.874;8.430;2022-12-18T04:05:30;102131.59;;;-10.15;86.53
4576;BME280;2300;51.874;8.430;2022-12-18T04:07:58;102116.81;;;-10.21;86.91
4576;BME280;2300;51.874;8.430;2022-12-18T04:10:25;102133.34;;;-9.94;87.41
4576;BME280;2300;51.874;8.430;2022-12-18T04:12:55;102138.28;;;-9.85;87.86
4576;BME280;2300;51.874;8.430;2022-12-18T04:15:23;102141.41;;;-9.77;88.34
4576;BME280;2300;51.874;8.430;2022-12-18T04:17:50;102135.13;;;-9.74;87.60
4576;BME280;2300;51.874;8.430;2022-12-18T04:20:17;102136.91;;;-9.75;87.82
4576;BME280;2300;51.874;8.430;2022-12-18T04:22:44;102144.94;;;-9.76;87.56
4576;BME280;2300;51.874;8.430;2022-12-18T04:25:11;102154.09;;;-9.82;87.49
4576;BME280;2300;51.874;8.430;2022-12-18T04:27:37;102142.28;;;-9.95;87.19
4576;BME280;2300;51.874;8.430;2022-12-18T04:30:05;102139.00;;;-10.01;86.49
4576;BME280;2300;51.874;8.430;2022-12-18T04:32:34;102157.34;;;-9.95;86.64
4576;BME280;2300;51.874;8.430;2022-12-18T04:35:01;102158.88;;;-9.90;87.07
4576;BME280;2300;51.874;8.430;2022-12-18T04:37:29;102159.59;;;-9.86;87.27
4576;BME280;2300;51.874;8.430;2022-12-18T04:39:55;102154.03;;;-9.80;87.34
4576;BME280;2300;51.874;8.430;2022-12-18T04:42:22;102156.56;;;-9.79;87.49
4576;BME280;2300;51.874;8.430;2022-12-18T04:44:49;102139.00;;;-9.81;87.29
4576;BME280;2300;51.874;8.430;2022-12-18T04:47:15;102150.06;;;-9.72;88.07
4576;BME280;2300;51.874;8.430;2022-12-18T04:49:43;102153.59;;;-9.71;87.87
4576;BME280;2300;51.874;8.430;2022-12-18T04:52:09;102155.25;;;-9.69;87.99
4576;BME280;2300;51.874;8.430;2022-12-18T04:54:36;102154.91;;;-9.61;88.12
4576;BME280;2300;51.874;8.430;2022-12-18T04:57:03;102154.63;;;-9.55;88.74
4576;BME280;2300;51.874;8.430;2022-12-18T04:59:29;102152.69;;;-9.51;88.54
4576;BME280;2300;51.874;8.430;2022-12-18T05:01:56;102147.53;;;-9.36;89.27
4576;BME280;2300;51.874;8.430;2022-12-18T05:04:22;102153.06;;;-9.22;89.51
4576;BME280;2300;51.874;8.430;2022-12-18T05:06:50;102152.31;;;-9.05;89.92
4576;BME280;2300;51.874;8.430;2022-12-18T05:09:17;102153.31;;;-8.89;90.07
4576;BME280;2300;51.874;8.430;2022-12-18T05:11:43;102146.81;;;-8.83;90.07
4576;BME280;2300;51.874;8.430;2022-12-18T05:14:10;102142.44;;;-8.84;89.67
4576;BME280;2300;51.874;8.430;2022-12-18T05:16:36;102135.66;;;-8.72;89.96
4576;BME280;2300;51.874;8.430;2022-12-18T05:19:03;102120.31;;;-8.67;89.87
4576;BME280;2300;51.874;8.430;2022-12-18T05:21:29;102127.22;;;-8.63;89.57
4576;BME280;2300;51.874;8.430;2022-12-18T05:23:57;102133.09;;;-8.57;89.37
4576;BME280;2300;51.874;8.430;2022-12-18T05:26:24;102126.34;;;-8.64;88.79
4576;BME280;2300;51.874;8.430;2022-12-18T05:28:50;102127.78;;;-8.57;89.14
4576;BME280;2300;51.874;8.430;2022-12-18T05:31:17;102132.25;;;-8.57;88.93
4576;BME280;2300;51.874;8.430;2022-12-18T05:33:43;102141.03;;;-8.55;89.13
4576;BME280;2300;51.874;8.430;2022-12-18T05:36:10;102141.16;;;-8.58;88.82
4576;BME280;2300;51.874;8.430;2022-12-18T05:38:38;102134.97;;;-8.59;88.71
4576;BME280;2300;51.874;8.430;2022-12-18T05:41:07;102133.56;;;-8.66;88.29
4576;BME280;2300;51.874;8.430;2022-12-18T05:43:35;102135.59;;;-8.71;88.28
4576;BME280;2300;51.874;8.430;2022-12-18T05:46:06;102130.41;;;-8.74;88.38
4576;BME280;2300;51.874;8.430;2022-12-18T05:48:33;102133.22;;;-8.77;88.42
4576;BME280;2300;51.874;8.430;2022-12-18T05:51:04;102129.00;;;-8.81;88.61
4576;BME280;2300;51.874;8.430;2022-12-18T05:53:32;102137.63;;;-8.76;89.04
4576;BME280;2300;51.874;8.430;2022-12-18T05:56:00;102141.16;;;-8.75;89.22
4576;BME280;2300;51.874;8.430;2022-12-18T05:58:28;102117.81;;;-8.89;89.32
4576;BME280;2300;51.874;8.430;2022-12-18T06:00:55;102139.19;;;-8.72;89.02
4576;BME280;2300;51.874;8.430;2022-12-18T06:03:22;102122.22;;;-8.88;88.91
4576;BME280;2300;51.874;8.430;2022-12-18T06:05:49;102130.63;;;-8.78;88.69
4576;BME280;2300;51.874;8.430;2022-12-18T06:08:15;102138.03;;;-8.85;88.41
4576;BME280;2300;51.874;8.430;2022-12-18T06:10:42;102145.09;;;-8.84;88.60
4576;BME280;2300;51.874;8.430;2022-12-18T06:13:08;102141.34;;;-8.80;88.87
4576;BME280;2300;51.874;8.430;2022-12-18T06:15:37;102138.69;;;-8.80;88.95
4576;BME280;2300;51.874;8.430;2022-12-18T06:18:04;102119.63;;;-8.90;88.83
4576;BME280;2300;51.874;8.430;2022-12-18T06:20:30;102149.44;;;-8.82;88.54
4576;BME280;2300;51.874;8.430;2022-12-18T06:22:57;102151.28;;;-8.84;88.36
4576;BME280;2300;51.874;8.430;2022-12-18T06:25:23;102151.44;;;-8.87;88.63
4576;BME280;2300;51.874;8.430;2022-12-18T06:27:50;102145.66;;;-8.77;89.10
4576;BME280;2300;51.874;8.430;2022-12-18T06:30:16;102156.91;;;-8.71;89.44
4576;BME280;2300;51.874;8.430;2022-12-18T06:32:44;102152.84;;;-8.61;89.88
4576;BME280;2300;51.874;8.430;2022-12-18T06:35:11;102152.56;;;-8.55;90.01
4576;BME280;2300;51.874;8.430;2022-12-18T06:37:37;102152.88;;;-8.44;90.19
4576;BME280;2300;51.874;8.430;2022-12-18T06:40:05;102156.81;;;-8.33;90.20
4576;BME280;2300;51.874;8.430;2022-12-18T06:42:32;102168.28;;;-8.31;89.89
4576;BME280;2300;51.874;8.430;2022-12-18T06:44:58;102169.06;;;-8.29;89.38
4576;BME280;2300;51.874;8.430;2022-12-18T06:47:25;102171.69;;;-8.47;88.74
4576;BME280;2300;51.874;8.430;2022-12-18T06:49:53;102172.41;;;-8.43;89.03
4576;BME280;2300;51.874;8.430;2022-12-18T06:52:19;102173.13;;;-8.40;89.13
4576;BME280;2300;51.874;8.430;2022-12-18T06:54:46;102170.47;;;-8.40;89.19
4576;BME280;2300;51.874;8.430;2022-12-18T06:57:12;102173.75;;;-8.34;88.96
4576;BME280;2300;51.874;8.430;2022-12-18T06:59:39;102178.88;;;-8.30;89.08
4576;BME280;2300;51.874;8.430;2022-12-18T07:02:06;102179.72;;;-8.29;88.90
4576;BME280;2300;51.874;8.430;2022-12-18T07:04:32;102180.50;;;-8.27;89.02
4576;BME280;2300;51.874;8.430;2022-12-18T07:07:00;102177.41;;;-8.18;89.18
4576;BME280;2300;51.874;8.430;2022-12-18T07:09:27;102149.31;;;-8.25;89.15
4576;BME280;2300;51.874;8.430;2022-12-18T07:11:54;102160.09;;;-8.28;88.71
4576;BME280;2300;51.874;8.430;2022-12-18T07:14:21;102143.66;;;-8.37;88.70
4576;BME280;2300;51.874;8.430;2022-12-18T07:16:48;102168.72;;;-8.23;88.69
4576;BME280;2300;51.874;8.430;2022-12-18T07:19:14;102158.25;;;-8.26;88.67
4576;BME280;2300;51.874;8.430;2022-12-18T07:21:41;102161.78;;;-8.09;89.07
4576;BME280;2300;51.874;8.430;2022-12-18T07:24:09;102163.50;;;-8.08;89.18
4576;BME280;2300;51.874;8.430;2022-12-18T07:26:35;102169.25;;;-7.98;89.04
4576;BME280;2300;51.874;8.430;2022-12-18T07:29:02;102169.88;;;-7.93;88.91
4576;BME280;2300;51.874;8.430;2022-12-18T07:31:29;102144.69;;;-8.05;89.07
4576;BME280;2300;51.874;8.430;2022-12-18T07:33:55;102163.56;;;-7.92;89.01
4576;BME280;2300;51.874;8.430;2022-12-18T07:36:22;102161.34;;;-7.82;89.38
4576;BME280;2300;51.874;8.430;2022-12-18T07:38:49;102163.03;;;-7.81;89.20
4576;BME280;2300;51.874;8.430;2022-12-18T07:41:18;102172.53;;;-7.76;89.18
4576;BME280;2300;51.874;8.430;2022-12-18T07:43:45;102179.53;;;-7.73;89.06
4576;BME280;2300;51.874;8.430;2022-12-18T07:46:13;102174.75;;;-7.67;89.33
4576;BME280;2300;51.874;8.430;2022-12-18T07:48:40;102178.03;;;-7.62;89.16
4576;BME280;2300;51.874;8.430;2022-12-18T07:51:08;102181.22;;;-7.55;89.38
4576;BME280;2300;51.874;8.430;2022-12-18T07:53:35;102176.19;;;-7.61;89.56
4576;BME280;2300;51.874;8.430;2022-12-18T07:56:04;102175.50;;;-7.32;90.08
4576;BME280;2300;51.874;8.430;2022-12-18T07:58:33;102175.28;;;-7.12;90.58
4576;BME280;2300;51.874;8.430;2022-12-18T08:01:04;102168.13;;;-7.11;89.80
4576;BME280;2300;51.874;8.430;2022-12-18T08:03:31;102154.00;;;-7.13;89.65
4576;BME280;2300;51.874;8.430;2022-12-18T08:05:59;102156.06;;;-7.18;89.33
4576;BME280;2300;51.874;8.430;2022-12-18T08:08:25;102161.41;;;-7.18;89.16
4576;BME280;2300;51.874;8.430;2022-12-18T08:10:52;102138.81;;;-7.28;89.25
4576;BME280;2300;51.874;8.430;2022-12-18T08:13:18;102150.91;;;-7.05;89.31
4576;BME280;2300;51.874;8.430;2022-12-18T08:15:46;102149.19;;;-6.91;89.76
4576;BME280;2300;51.874;8.430;2022-12-18T08:18:13;102146.00;;;-6.82;89.50
4576;BME280;2300;51.874;8.430;2022-12-18T08:20:39;102150.06;;;-6.75;89.30
4576;BME280;2300;51.874;8.430;2022-12-18T08:23:06;102143.34;;;-6.66;89.67
4576;BME280;2300;51.874;8.430;2022-12-18T08:25:33;102127.47;;;-6.53;89.91
4576;BME280;2300;51.874;8.430;2022-12-18T08:28:00;102130.00;;;-6.36;89.67
4576;BME280;2300;51.874;8.430;2022-12-18T08:30:26;102129.31;;;-6.24;89.74
4576;BME280;2300;51.874;8.430;2022-12-18T08:32:54;102127.44;;;-6.08;89.84
4576;BME280;2300;51.874;8.430;2022-12-18T08:35:21;102115.59;;;-6.04;89.68
4576;BME280;2300;51.874;8.430;2022-12-18T08:37:47;102130.38;;;-5.83;89.73
4576;BME280;2300;51.874;8.430;2022-12-18T08:40:14;102124.09;;;-5.67;89.44
4576;BME280;2300;51.874;8.430;2022-12-18T08:42:40;102124.28;;;-5.56;89.41
4576;BME280;2300;51.874;8.430;2022-12-18T08:45:25;102122.97;;;-5.49;89.31
4576;BME280;2300;51.874;8.430;2022-12-18T08:47:51;102121.03;;;-5.47;89.01
4576;BME280;2300;51.874;8.430;2022-12-18T08:50:19;102124.41;;;-5.29;89.01
4576;BME280;2300;51.874;8.430;2022-12-18T08:52:46;102132.16;;;-5.25;88.92
4576;BME280;2300;51.874;8.430;2022-12-18T08:55:12;102128.28;;;-5.07;89.28
4576;BME280;2300;51.874;8.430;2022-12-18T08:57:39;102134.91;;;-4.98;89.11
4576;BME280;2300;51.874;8.430;2022-12-18T09:00:07;102136.22;;;-4.77;88.59
4576;BME280;2300;51.874;8.430;2022-12-18T09:02:33;102119.44;;;-4.66;88.30
4576;BME280;2300;51.874;8.430;2022-12-18T09:05:00;102123.09;;;-4.55;88.12
4576;BME280;2300;51.874;8.430;2022-12-18T09:07:28;102116.53;;;-4.36;87.63
4576;BME280;2300;51.874;8.430;2022-12-18T09:09:54;102124.28;;;-4.32;87.68
4576;BME280;2300;51.874;8.430;2022-12-18T09:12:21;102124.63;;;-4.24;88.08
4576;BME280;2300;51.874;8.430;2022-12-18T09:14:48;102131.63;;;-4.09;88.01
4576;BME280;2300;51.874;8.430;2022-12-18T09:17:14;102122.84;;;-3.98;87.34
4576;BME280;2300;51.874;8.430;2022-12-18T09:19:41;102129.13;;;-3.85;87.64
4576;BME280;2300;51.874;8.430;2022-12-18T09:22:07;102133.97;;;-3.65;87.44
4576;BME280;2300;51.874;8.430;2022-12-18T09:24:36;102131.81;;;-3.72;86.63
4576;BME280;2300;51.874;8.430;2022-12-18T09:27:02;102130.22;;;-3.62;86.32
4576;BME280;2300;51.874;8.430;2022-12-18T09:29:29;102121.84;;;-3.45;86.33
4576;BME280;2300;51.874;8.430;2022-12-18T09:31:55;102121.19;;;-3.23;86.14
4576;BME280;2300;51.874;8.430;2022-12-18T09:34:22;102123.22;;;-3.14;85.36
4576;BME280;2300;51.874;8.430;2022-12-18T09:36:49;102121.38;;;-3.01;85.75
4576;BME280;2300;51.874;8.430;2022-12-18T09:39:15;102121.56;;;-2.91;85.14
4576;BME280;2300;51.874;8.430;2022-12-18T09:41:46;102108.00;;;-2.90;84.50
4576;BME280;2300;51.874;8.430;2022-12-18T09:44:21;102110.50;;;-2.63;84.88
4576;BME280;2300;51.874;8.430;2022-12-18T09:46:53;102115.22;;;-2.54;84.17
4576;BME280;2300;51.874;8.430;2022-12-18T09:49:24;102112.81;;;-2.46;84.11
4576;BME280;2300;51.874;8.430;2022-12-18T09:51:54;102116.19;;;-2.31;84.39
4576;BME280;2300;51.874;8.430;2022-12-18T09:54:25;102113.47;;;-2.31;83.47
4576;BME280;2300;51.874;8.430;2022-12-18T09:56:53;102119.84;;;-2.32;83.23
4576;BME280;2300;51.874;8.430;2022-12-18T09:59:24;102126.59;;;-2.26;83.48
4576;BME280;2300;51.874;8.430;2022-12-18T10:01:51;102125.56;;;-2.37;82.78
4576;BME280;2300;51.874;8.430;2022-12-18T10:04:17;102122.41;;;-2.30;83.21
4576;BME280;2300;51.874;8.430;2022-12-18T10:06:51;102129.44;;;-2.17;83.02
4576;BME280;2300;51.874;8.430;2022-12-18T10:09:27;102131.56;;;-2.09;82.36
4576;BME280;2300;51.874;8.430;2022-12-18T10:12:04;102132.53;;;-2.10;81.90
4576;BME280;2300;51.874;8.430;2022-12-18T10:14:37;102114.97;;;-2.03;81.63
4576;BME280;2300;51.874;8.430;2022-12-18T10:17:13;102112.00;;;-1.76;81.34
4576;BME280;2300;51.874;8.430;2022-12-18T10:19:45;102106.75;;;-1.67;80.83
4576;BME280;2300;51.874;8.430;2022-12-18T10:22:23;102107.44;;;-1.76;80.77
4576;BME280;2300;51.874;8.430;2022-12-18T10:24:56;102093.28;;;-1.67;79.58
4576;BME280;2300;51.874;8.430;2022-12-18T10:27:26;102084.72;;;-1.61;80.09
4576;BME280;2300;51.874;8.430;2022-12-18T10:29:53;102073.19;;;-1.52;79.90
4576;BME280;2300;51.874;8.430;2022-12-18T10:32:21;102053.84;;;-1.45;79.99
4576;BME280;2300;51.874;8.430;2022-12-18T10:34:50;102052.34;;;-1.50;79.60
4576;BME280;2300;51.874;8.430;2022-12-18T10:37:18;102043.28;;;-1.60;80.11
4576;BME280;2300;51.874;8.430;2022-12-18T10:39:45;102049.91;;;-1.53;79.37
4576;BME280;2300;51.874;8.430;2022-12-18T10:42:18;102046.75;;;-1.35;79.08
4576;BME280;2300;51.874;8.430;2022-12-18T10:45:00;102050.53;;;-1.27;78.25
4576;BME280;2300;51.874;8.430;2022-12-18T10:47:27;102040.34;;;-1.34;77.78
4576;BME280;2300;51.874;8.430;2022-12-18T10:49:54;102031.53;;;-1.47;77.93
4576;BME280;2300;51.874;8.430;2022-12-18T10:52:22;102037.69;;;-1.45;77.97
4576;BME280;2300;51.874;8.430;2022-12-18T10:54:52;102026.50;;;-1.74;77.57
4576;BME280;2300;51.874;8.430;2022-12-18T10:57:32;102039.84;;;-1.73;78.08
4576;BME280;2300;51.874;8.430;2022-12-18T11:00:20;102023.81;;;-1.63;77.63
4576;BME280;2300;51.874;8.430;2022-12-18T11:02:47;102017.47;;;-1.62;78.15
4576;BME280;2300;51.874;8.430;2022-12-18T11:05:26;102004.59;;;-1.70;77.95
4576;BME280;2300;51.874;8.430;2022-12-18T11:07:53;102009.25;;;-1.61;77.50
4576;BME280;2300;51.874;8.430;2022-12-18T11:10:21;101997.75;;;-1.52;77.98
4576;BME280;2300;51.874;8.430;2022-12-18T11:12:48;101992.84;;;-1.58;77.42
4576;BME280;2300;51.874;8.430;2022-12-18T11:15:19;101996.03;;;-1.41;77.10
4576;BME280;2300;51.874;8.430;2022-12-18T11:17:48;101982.44;;;-1.40;76.90
4576;BME280;2300;51.874;8.430;2022-12-18T11:20:29;101974.69;;;-1.33;75.97
4576;BME280;2300;51.874;8.430;2022-12-18T11:22:59;101977.25;;;-1.32;75.94
4576;BME280;2300;51.874;8.430;2022-12-18T11:25:27;101964.88;;;-1.23;75.38
4576;BME280;2300;51.874;8.430;2022-12-18T11:27:56;101948.78;;;-1.14;76.23
4576;BME280;2300;51.874;8.430;2022-12-18T11:30:27;101952.88;;;-1.19;74.83
4576;BME280;2300;51.874;8.430;2022-12-18T11:32:58;101962.53;;;-1.17;74.02
4576;BME280;2300;51.874;8.430;2022-12-18T11:35:38;101962.13;;;-1.01;74.16
4576;BME280;2300;51.874;8.430;2022-12-18T11:38:13;101965.50;;;-0.88;73.92
4576;BME280;2300;51.874;8.430;2022-12-18T11:40:44;101956.94;;;-0.93;73.65
4576;BME280;2300;51.874;8.430;2022-12-18T11:43:15;101948.72;;;-0.91;73.43
4576;BME280;2300;51.874;8.430;2022-12-18T11:45:49;101917.47;;;-0.94;73.21
4576;BME280;2300;51.874;8.430;2022-12-18T11:48:22;101911.22;;;-0.94;72.55
4576;BME280;2300;51.874;8.430;2022-12-18T11:50:52;101937.63;;;-0.77;71.87
4576;BME280;2300;51.874;8.430;2022-12-18T11:53:20;101933.81;;;-0.75;71.81
4576;BME280;2300;51.874;8.430;2022-12-18T11:55:59;101926.72;;;-0.76;72.91
4576;BME280;2300;51.874;8.430;2022-12-18T11:58:38;101937.56;;;-0.66;71.18
4576;BME280;2300;51.874;8.430;2022-12-18T12:01:16;101932.56;;;-0.71;71.76
4576;BME280;2300;51.874;8.430;2022-12-18T12:03:57;101902.19;;;-0.73;72.05
4576;BME280;2300;51.874;8.430;2022-12-18T12:06:31;101898.94;;;-0.67;70.26
4576;BME280;2300;51.874;8.430;2022-12-18T12:09:05;101882.16;;;-0.70;70.85
4576;BME280;2300;51.874;8.430;2022-12-18T12:11:44;101894.81;;;-0.71;70.72
4576;BME280;2300;51.874;8.430;2022-12-18T12:14:31;101884.22;;;-0.62;70.46
4576;BME280;2300;51.874;8.430;2022-12-18T12:17:04;101883.09;;;-0.60;70.10
4576;BME280;2300;51.874;8.430;2022-12-18T12:19:45;101894.75;;;-0.59;69.64
4576;BME280;2300;51.874;8.430;2022-12-18T12:22:20;101888.81;;;-0.53;70.04
4576;BME280;2300;51.874;8.430;2022-12-18T12:25:00;101877.44;;;-0.57;69.25
4576;BME280;2300;51.874;8.430;2022-12-18T12:27:36;101868.94;;;-0.52;69.92
4576;BME280;2300;51.874;8.430;2022-12-18T12:30:08;101870.38;;;-0.48;69.47
4576;BME280;2300;51.874;8.430;2022-12-18T12:32:49;101874.34;;;-0.52;68.97
4576;BME280;2300;51.874;8.430;2022-12-18T12:35:31;101856.69;;;-0.56;68.37
4576;BME280;2300;51.874;8.430;2022-12-18T12:38:06;101861.56;;;-0.50;67.91
4576;BME280;2300;51.874;8.430;2022-12-18T12:40:36;101873.25;;;-0.40;68.90
4576;BME280;2300;51.874;8.430;2022-12-18T12:43:16;101872.75;;;-0.34;68.58
4576;BME280;2300;51.874;8.430;2022-12-18T12:45:48;101877.69;;;-0.39;69.40
4576;BME280;2300;51.874;8.430;2022-12-18T12:48:27;101883.81;;;-0.37;69.46
4576;BME280;2300;51.874;8.430;2022-12-18T12:50:58;101866.09;;;-0.51;68.85
4576;BME280;2300;51.874;8.430;2022-12-18T12:53:31;101886.25;;;-0.34;68.89
4576;BME280;2300;51.874;8.430;2022-12-18T12:55:59;101883.47;;;-0.23;67.37
4576;BME280;2300;51.874;8.430;2022-12-18T12:58:33;101873.19;;;-0.29;68.12
4576;BME280;2300;51.874;8.430;2022-12-18T13:01:12;101863.94;;;-0.36;69.01
4576;BME280;2300;51.874;8.430;2022-12-18T13:03:48;101866.19;;;-0.41;69.33
4576;BME280;2300;51.874;8.430;2022-12-18T13:06:26;101852.13;;;-0.35;68.84
4576;BME280;2300;51.874;8.430;2022-12-18T13:08:57;101836.94;;;-0.36;68.78
4576;BME280;2300;51.874;8.430;2022-12-18T13:11:34;101841.78;;;-0.30;69.06
4576;BME280;2300;51.874;8.430;2022-12-18T13:14:21;101828.84;;;-0.36;67.49
4576;BME280;2300;51.874;8.430;2022-12-18T13:16:48;101833.69;;;-0.30;69.00
4576;BME280;2300;51.874;8.430;2022-12-18T13:19:23;101833.22;;;-0.35;68.26
4576;BME280;2300;51.874;8.430;2022-12-18T13:21:53;101828.97;;;-0.38;67.90